WetterOnline ( https://www.wetteronline.de )

Wetter aktuell Idstein

Aktuelles Wetter: Kleiner Feldberg (802m)

6-stündlich | Neueste Meldungen
Ortszeit Temperatur Wetter
Di, 24.11. 1:00 2.2° C bedeckt
Mo, 23.11. 19:00 2.4° C Nebel
Mo, 23.11. 13:00 3.3° C bedeckt
Mo, 23.11. 7:00 3.3° C Nebel
Mo, 23.11. 1:00 4.4° C Sprühregen
So, 22.11. 19:00 3.5° C Nebel
So, 22.11. 13:00 3.2° C Nebel
So, 22.11. 7:00 2.0° C bedeckt
Ortszeit Temperatur Wetter
Di, 24.11. 5:00 1.4° C leicht bewölkt
Di, 24.11. 4:50 1.4° C leicht bewölkt
Di, 24.11. 4:40 1.4° C Nebel
Di, 24.11. 4:30 1.8° C Nebel
Di, 24.11. 4:20 1.8° C Nebel
Di, 24.11. 4:10 1.9° C Nebel
Di, 24.11. 4:00 1.7° C Nebel
Di, 24.11. 3:30 1.9° C Nebel
Di, 24.11. 3:00 2.0° C Nebel
Di, 24.11. 2:30 2.0° C Nebel
Di, 24.11. 2:00 1.8° C Nebel
Ortszeit Relative Feuchte Sichtweite
Di, 24.11. 1:00 100% -
Mo, 23.11. 19:00 100% <100 m
Mo, 23.11. 13:00 99% 3.4 km
Mo, 23.11. 7:00 100% 100 m
Mo, 23.11. 1:00 100% 0.2 km
So, 22.11. 19:00 100% 100 m
So, 22.11. 13:00 99% <100 m
So, 22.11. 7:00 100% 3.2 km
Ortszeit Relative Feuchte Sichtweite
Di, 24.11. 5:00 100% 3.7 km
Di, 24.11. 4:50 100% -
Di, 24.11. 4:40 100% -
Di, 24.11. 4:30 100% 100 m
Di, 24.11. 4:20 100% -
Di, 24.11. 4:10 100% -
Di, 24.11. 4:00 100% 100 m
Di, 24.11. 3:30 100% 100 m
Di, 24.11. 3:00 100% 0.2 km
Di, 24.11. 2:30 100% 100 m
Di, 24.11. 2:00 100% 0.3 km
Ortszeit Niederschlagsmenge Niederschlagsart
Di, 24.11. 1:00 0.0 l/m2 in 6 Std. -
Mo, 23.11. 19:00 0.1 l/m2 in 12 Std. -
Mo, 23.11. 13:00 0.1 l/m2 in 6 Std. Regen
Mo, 23.11. 7:00 1 l/m2 in 12 Std. Regen
Mo, 23.11. 1:00 0.1 l/m2 in 6 Std. Regen
So, 22.11. 19:00 0.1 l/m2 in 12 Std. -
So, 22.11. 13:00 0.1 l/m2 in 6 Std. Sprühregen
So, 22.11. 7:00 0.0 l/m2 in 12 Std. -
Ortszeit Niederschlagsmenge Niederschlagsart
Di, 24.11. 5:00 0.0 l/m2 in 1 Std. -
Di, 24.11. 4:50 keine Meldung -
Di, 24.11. 4:40 keine Meldung -
Di, 24.11. 4:30 0.0 l/m2 in 1 Std. -
Di, 24.11. 4:20 keine Meldung -
Di, 24.11. 4:10 keine Meldung -
Di, 24.11. 4:00 0.0 l/m2 in 1 Std. -
Di, 24.11. 3:30 0.0 l/m2 in 1 Std. -
Di, 24.11. 3:00 0.0 l/m2 in 1 Std. -
Di, 24.11. 2:30 0.0 l/m2 in 1 Std. -
Di, 24.11. 2:00 0.0 l/m2 in 1 Std. -
Ortszeit Stärke Spitze Richtung
km/h Bft. km/h Grad Sektor
Di, 24.11. 1:00 9 2 19 190° S
Mo, 23.11. 19:00 7 2 18 180° S
Mo, 23.11. 13:00 7 2 25 320° NW
Mo, 23.11. 7:00 11 2 24 310° NW
Mo, 23.11. 1:00 9 2 24 290° W
So, 22.11. 19:00 7 2 25 270° W
So, 22.11. 13:00 11 2 32 280° W
So, 22.11. 7:00 13 3 31 280° W
Ortszeit Stärke Spitze Richtung
km/h Bft. km/h Grad Sektor
Di, 24.11. 5:00 13 3 22 180° S
Di, 24.11. 4:50 13 3 - 180° S
Di, 24.11. 4:40 11 2 - 180° S
Di, 24.11. 4:30 11 2 22 160° S
Di, 24.11. 4:20 11 2 - 160° S
Di, 24.11. 4:10 13 3 - 160° S
Di, 24.11. 4:00 11 2 22 180° S
Di, 24.11. 3:30 13 3 22 170° S
Di, 24.11. 3:00 13 3 20 180° S
Di, 24.11. 2:30 11 2 22 180° S
Di, 24.11. 2:00 11 2 18 190° S
Ortszeit Untergrenze Bedeckung Gattung
total tief tief mittel hoch
Di, 24.11. 1:00 <30 m 8/8 0/8 - - -
Mo, 23.11. 19:00 <30 m 8/8 0/8 - - -
Mo, 23.11. 13:00 <30 m 8/8 0/8 - - -
Mo, 23.11. 7:00 <30 m 8/8 0/8 - - -
Mo, 23.11. 1:00 <30 m 8/8 0/8 - - -
So, 22.11. 19:00 <30 m 8/8 0/8 - - -
So, 22.11. 13:00 <30 m 8/8 0/8 - - -
So, 22.11. 7:00 30 m 8/8 8/8 - - -
Ortszeit Bedeckungsgrad in Achtel und Wolkenuntergrenze
Di, 24.11. 5:00 4(<30m)
Di, 24.11. 4:50 4(<30m)
Di, 24.11. 4:40 6(<30m)
Di, 24.11. 4:30 7(<30m)
Di, 24.11. 4:20 7(<30m)
Di, 24.11. 4:10 7(<30m)
Di, 24.11. 4:00 7(<30m)
Di, 24.11. 3:30 8(<30m)
Di, 24.11. 3:00 7(<30m)
Di, 24.11. 2:30 7(<30m)
Di, 24.11. 2:00 7(<30m)
Ortszeit Stationsdruck (hPa) Tendenz (hPa in 3 Std.)
Di, 24.11. 1:00 931 - 1,0
Mo, 23.11. 19:00 931 + 0,3
Mo, 23.11. 13:00 931 + 0,6
Mo, 23.11. 7:00 929 + 0,7
Mo, 23.11. 1:00 929 - 0,2
So, 22.11. 19:00 929 + 0,2
So, 22.11. 13:00 929 - 0,5
So, 22.11. 7:00 930 + 0,1
Ortszeit Stationsdruck (hPa) Tendenz (hPa in 3 Std.)
Di, 24.11. 5:00 929 - 1,1
Di, 24.11. 4:50 929 keine Meldung
Di, 24.11. 4:40 929 keine Meldung
Di, 24.11. 4:30 929 - 1,3
Di, 24.11. 4:20 929 keine Meldung
Di, 24.11. 4:10 929 keine Meldung
Di, 24.11. 4:00 929 - 1,3
Di, 24.11. 3:30 930 - 1,3
Di, 24.11. 3:00 930 - 1,2
Di, 24.11. 2:30 930 - 1,3
Di, 24.11. 2:00 930 - 1,1
Ortszeit Schneehöhe (cm)
Di, 24.11. 1:00 0
Mo, 23.11. 19:00 0
Mo, 23.11. 13:00 0
Mo, 23.11. 7:00 0
Mo, 23.11. 1:00 0
So, 22.11. 19:00 0
So, 22.11. 13:00 0
So, 22.11. 7:00 0
Ortszeit Schneehöhe (cm)
Di, 24.11. 5:00 0
Di, 24.11. 4:50 0
Di, 24.11. 4:40 0
Di, 24.11. 4:30 0
Di, 24.11. 4:20 0
Di, 24.11. 4:10 0
Di, 24.11. 4:00 0
Di, 24.11. 3:30 0
Di, 24.11. 3:00 0
Di, 24.11. 2:30 0
Di, 24.11. 2:00 0
Link zu dieser Seite / Seite empfehlen

Das Wetter in ...